Pine, Texas
Current Conditions -  °F | °C
As of 9:15 AM on Sunday 21 Dec 2014 (Local Time) from KOSA Reporting Station
Overcast Overcast  
Wind Chill: 41°   Ceiling: 3800
Heat Index: 45°   Visibility: 5mi
Dew Point: 42°   Wind: 7mph
Humidity: 90%   Direction: 130°SE
Pressure: 30.15"   Gusts: NA
Location:  32.9352°N, 94.9553°W
Report Text: KOSA 211515Z AUTO 13006KT 5SM OVC038 07/06 A3015 RMK AO1 T00720056
Loading
Personal Weather Stations






























Interactive Weather Map New forecast layout! Learn more

10-Day Weather Forecast

Advertisements
Track Severe Weather on mobile